Mont Blanc Hawk — 3EPI8 — position and weather

sailwx.info

Track history (hours):
 
Tides and Currents Weather Stations Pressure Air Temp Water Temp Dewpoint Dewpoint Depression Visibility Wind Speed Wind Dir Waves Ship Positions

Mont Blanc Hawk

Last reported at 2018-May-02 11:23 UTC. Time now 2018-Jun-24 22:22 UTC.
Position N 01°21' E 103°18'.
Warning: this ship's position is 53 days out of date.

Length 228 m; draft 14.2 m.

Type: Cargo ship. MMSI: 374018000.

Date/timePositionNaut miles runAvg speedWind from/ knotsBaromVisibWave heightAir tempDewpointWater temp
2018-May-02 11:23N 01°21' E 103°18'512.8
2018-May-02 11:00N 01°18' E 103°21'713.1
2018-May-02 10:29N 01°14' E 103°27'612.0
2018-May-02 10:00N 01°12' E 103°33'612.9
2018-May-02 09:30N 01°11' E 103°39'510.4
2018-May-02 09:00N 01°09' E 103°43'4 8.4
2018-May-02 08:30N 01°10' E 103°47'610.9
2018-May-02 08:00N 01°13' E 103°52'4 8.2
2018-May-02 07:30N 01°14' E 103°56'2 4.0
2018-May-02 07:00N 01°16' E 103°57'0 0.7
2018-May-02 06:23N 01°17' E 103°57'0 0.1
2018-May-02 05:59N 01°17' E 103°57'0 0.0
2018-May-02 05:21N 01°17' E 103°57'0 0.0
2018-May-02 04:56N 01°17' E 103°57'0 0.0
2018-May-02 04:26N 01°17' E 103°57'0 0.0
2018-May-02 03:59N 01°17' E 103°57'0 0.0
2018-May-02 03:30N 01°17' E 103°57'0 0.0
2018-May-02 02:59N 01°17' E 103°57'0 0.0
2018-May-02 02:29N 01°17' E 103°57'0 0.1
2018-May-02 01:56N 01°17' E 103°57'0 0.3
2018-May-02 01:29N 01°17' E 103°57'0 0.2
2018-May-02 00:59N 01°17' E 103°57'0 0.1
2018-May-02 00:26N 01°17' E 103°57'0 0.1
2018-May-01 23:50N 01°17' E 103°57'0 0.2
2018-May-01 23:28N 01°17' E 103°57'0 0.1
2018-May-01 22:56N 01°17' E 103°57'0 0.0
2018-May-01 22:28N 01°17' E 103°57'0 0.0
2018-May-01 21:53N 01°17' E 103°57'0 0.0
2018-May-01 21:30N 01°17' E 103°57'0 0.0
2018-May-01 20:56N 01°17' E 103°57'0 0.0
2018-May-01 20:29N 01°17' E 103°57'0 0.0
2018-May-01 19:49N 01°17' E 103°57'0 0.0
2018-May-01 19:29N 01°17' E 103°57'0 0.1
2018-May-01 18:59N 01°17' E 103°57'0 0.1
2018-May-01 18:30N 01°17' E 103°57'2 4.2
2018-May-01 17:59N 01°16' E 103°59'4 6.9
2018-May-01 17:29N 01°16' E 104°02'510.4
2018-May-01 16:59N 01°17' E 104°07'510.0
2018-May-01 16:30N 01°18' E 104°12'5 9.7
2018-May-01 15:58N 01°18' E 104°17'510.7
2018-May-01 15:28N 01°21' E 104°22'510.7
2018-May-01 14:58N 01°24' E 104°26'611.1
2018-May-01 14:26N 01°28' E 104°30'43 9.6
2018-May-01 09:56N 01°21' E 105°13'611.4
2018-May-01 09:22N 01°17' E 105°17'611.2
2018-May-01 08:51N 01°13' E 105°22'  
Track history (hours):
 
Tides and Currents Weather Stations Pressure Air Temp Water Temp Dewpoint Dewpoint Depression Visibility Wind Speed Wind Dir Waves Ship Positions

Mont Blanc Hawk

Last reported at 2018-May-02 11:23 UTC. Time now 2018-Jun-24 22:22 UTC.
Position N 01°21' E 103°18'.
Warning: this ship's position is 53 days out of date.

Length 228 m; draft 14.2 m.

Type: Cargo ship. MMSI: 374018000.

Date/timePositionNaut miles runAvg speedWind from/ knotsBaromVisibWave heightAir tempDewpointWater temp
2018-May-02 11:23N 01°21' E 103°18'512.8
2018-May-02 11:00N 01°18' E 103°21'713.1
2018-May-02 10:29N 01°14' E 103°27'612.0
2018-May-02 10:00N 01°12' E 103°33'612.9
2018-May-02 09:30N 01°11' E 103°39'510.4
2018-May-02 09:00N 01°09' E 103°43'4 8.4
2018-May-02 08:30N 01°10' E 103°47'610.9
2018-May-02 08:00N 01°13' E 103°52'4 8.2
2018-May-02 07:30N 01°14' E 103°56'2 4.0
2018-May-02 07:00N 01°16' E 103°57'0 0.7
2018-May-02 06:23N 01°17' E 103°57'0 0.1
2018-May-02 05:59N 01°17' E 103°57'0 0.0
2018-May-02 05:21N 01°17' E 103°57'0 0.0
2018-May-02 04:56N 01°17' E 103°57'0 0.0
2018-May-02 04:26N 01°17' E 103°57'0 0.0
2018-May-02 03:59N 01°17' E 103°57'0 0.0
2018-May-02 03:30N 01°17' E 103°57'0 0.0
2018-May-02 02:59N 01°17' E 103°57'0 0.0
2018-May-02 02:29N 01°17' E 103°57'0 0.1
2018-May-02 01:56N 01°17' E 103°57'0 0.3
2018-May-02 01:29N 01°17' E 103°57'0 0.2
2018-May-02 00:59N 01°17' E 103°57'0 0.1
2018-May-02 00:26N 01°17' E 103°57'0 0.1
2018-May-01 23:50N 01°17' E 103°57'0 0.2
2018-May-01 23:28N 01°17' E 103°57'0 0.1
2018-May-01 22:56N 01°17' E 103°57'0 0.0
2018-May-01 22:28N 01°17' E 103°57'0 0.0
2018-May-01 21:53N 01°17' E 103°57'0 0.0
2018-May-01 21:30N 01°17' E 103°57'0 0.0
2018-May-01 20:56N 01°17' E 103°57'0 0.0
2018-May-01 20:29N 01°17' E 103°57'0 0.0
2018-May-01 19:49N 01°17' E 103°57'0 0.0
2018-May-01 19:29N 01°17' E 103°57'0 0.1
2018-May-01 18:59N 01°17' E 103°57'0 0.1
2018-May-01 18:30N 01°17' E 103°57'2 4.2
2018-May-01 17:59N 01°16' E 103°59'4 6.9
2018-May-01 17:29N 01°16' E 104°02'510.4
2018-May-01 16:59N 01°17' E 104°07'510.0
2018-May-01 16:30N 01°18' E 104°12'5 9.7
2018-May-01 15:58N 01°18' E 104°17'510.7
2018-May-01 15:28N 01°21' E 104°22'510.7
2018-May-01 14:58N 01°24' E 104°26'611.1
2018-May-01 14:26N 01°28' E 104°30'43 9.6
2018-May-01 09:56N 01°21' E 105°13'611.4
2018-May-01 09:22N 01°17' E 105°17'611.2
2018-May-01 08:51N 01°13' E 105°22'  

Dump ship's entire track history